Time;durP1;ratioP1;P1;durP2;ratioP2;P2;SDS_P1;SDS_P2;PMS_P1;PMS_P2;Temp;Humidity;BMP_temperature;BMP_pressure;BME280_temperature;BME280_humidity;BME280_pressure;Samples;Min_cycle;Max_cycle;Signal;HPM_P1;HPM_P2
2022/09/11 00:00:42;;;;;;;23.97;21.60;;;19.10;99.90;;;;;;4994303;28;20263;-66
2022/09/11 00:03:08;;;;;;;22.20;20.00;;;19.10;99.90;;;;;;4994006;28;20455;-66
2022/09/11 00:05:42;;;;;;;21.63;19.57;;;19.10;99.90;;;;;;4976051;28;21194;-66
2022/09/11 00:08:11;;;;;;;23.20;20.80;;;19.00;99.90;;;;;;4994197;28;20403;-66
2022/09/11 00:10:39;;;;;;;23.77;21.23;;;19.00;99.90;;;;;;4993607;28;20487;-66
2022/09/11 00:13:19;;;;;;;23.70;21.20;;;19.00;99.90;;;;;;4993842;28;20419;-66
2022/09/11 00:15:47;;;;;;;23.43;21.00;;;19.00;99.90;;;;;;4994185;28;20407;-66
2022/09/11 00:18:16;;;;;;;23.30;19.80;;;19.00;99.90;;;;;;4993994;28;20411;-66
2022/09/11 00:20:50;;;;;;;20.53;18.40;;;19.00;99.90;;;;;;4993990;28;20403;-66
2022/09/11 00:23:20;;;;;;;24.30;21.70;;;19.00;99.90;;;;;;4993217;28;20463;-71
2022/09/11 00:25:47;;;;;;;22.27;20.10;;;19.00;99.90;;;;;;4993765;28;20438;-66
2022/09/11 00:28:18;;;;;;;21.87;19.50;;;18.90;99.90;;;;;;4993840;28;20403;-66
2022/09/11 00:30:45;;;;;;;23.00;20.70;;;18.90;99.90;;;;;;4993996;28;20772;-66
2022/09/11 00:33:12;;;;;;;23.17;20.63;;;18.90;99.90;;;;;;4993394;28;20411;-66
2022/09/11 00:35:39;;;;;;;23.87;21.57;;;18.90;99.90;;;;;;4992538;28;20582;-66
2022/09/11 00:38:07;;;;;;;23.47;21.27;;;18.90;99.90;;;;;;4993678;28;20423;-66
2022/09/11 00:40:43;;;;;;;25.00;22.27;;;18.80;99.90;;;;;;4992708;28;20923;-66
2022/09/11 00:43:09;;;;;;;23.73;21.17;;;18.90;99.90;;;;;;4992481;28;20454;-66
2022/09/11 00:45:35;;;;;;;24.30;21.70;;;18.90;99.90;;;;;;4992661;28;20925;-66
2022/09/11 00:48:02;;;;;;;22.90;20.60;;;18.90;99.90;;;;;;4993639;28;20523;-66
2022/09/11 00:50:30;;;;;;;24.90;22.30;;;18.90;99.90;;;;;;4992944;28;20526;-66
2022/09/11 00:53:03;;;;;;;23.80;21.37;;;19.00;99.90;;;;;;4993441;28;20442;-66
2022/09/11 00:55:34;;;;;;;24.67;21.97;;;19.00;99.90;;;;;;4992880;28;20399;-65
2022/09/11 00:58:14;;;;;;;25.87;22.80;;;18.90;99.90;;;;;;4993023;28;20771;-66
2022/09/11 01:00:43;;;;;;;24.00;21.40;;;18.90;99.90;;;;;;4992549;28;20422;-66
2022/09/11 01:03:10;;;;;;;24.10;21.63;;;18.90;99.90;;;;;;4993341;28;20463;-66
2022/09/11 01:05:38;;;;;;;21.87;19.70;;;18.90;99.90;;;;;;4992757;28;20422;-66
2022/09/11 01:08:05;;;;;;;23.90;21.40;;;18.90;99.90;;;;;;4993282;28;20434;-66
2022/09/11 01:10:37;;;;;;;26.07;22.50;;;18.90;99.90;;;;;;4992952;28;20418;-66
2022/09/11 01:13:21;;;;;;;24.53;21.93;;;18.90;99.90;;;;;;4975799;28;20514;-66
2022/09/11 01:16:04;;;;;;;23.17;20.87;;;18.80;99.90;;;;;;4993177;28;20949;-66
2022/09/11 01:18:33;;;;;;;25.50;21.80;;;18.80;99.90;;;;;;4992360;28;20411;-66
2022/09/11 01:21:32;;;;;;;22.80;20.50;;;18.80;99.90;;;;;;4993139;28;20497;-66
2022/09/11 01:24:15;;;;;;;24.23;21.40;;;18.70;99.90;;;;;;4976237;28;20498;-66
2022/09/11 01:27:15;;;;;;;23.67;21.17;;;18.70;99.90;;;;;;4992283;28;20888;-66
2022/09/11 01:29:56;;;;;;;23.27;20.50;;;18.70;99.90;;;;;;4955435;28;20521;-66
2022/09/11 01:32:31;;;;;;;22.97;20.70;;;18.70;99.90;;;;;;4992225;28;20449;-66
2022/09/11 01:35:23;;;;;;;22.60;20.20;;;18.70;99.90;;;;;;4990664;28;20785;-66
2022/09/11 01:38:03;;;;;;;22.37;20.10;;;18.60;99.90;;;;;;4975573;28;20442;-66
2022/09/11 01:40:58;;;;;;;24.80;22.27;;;18.60;99.90;;;;;;4992148;28;20495;-66
2022/09/11 01:43:29;;;;;;;25.33;22.80;;;18.70;99.90;;;;;;4992385;28;20447;-66
2022/09/11 01:46:00;;;;;;;25.53;22.90;;;18.70;99.90;;;;;;4992922;28;20415;-66
2022/09/11 01:48:34;;;;;;;24.53;21.93;;;18.70;99.90;;;;;;4992442;28;20406;-66
2022/09/11 01:51:03;;;;;;;25.30;22.57;;;18.70;99.90;;;;;;4993241;28;20466;-66
2022/09/11 01:53:36;;;;;;;24.90;22.30;;;18.80;99.90;;;;;;4992310;28;20411;-66
2022/09/11 01:56:19;;;;;;;24.30;21.90;;;18.80;99.90;;;;;;4992711;28;20879;-66
2022/09/11 01:58:47;;;;;;;30.70;23.17;;;18.80;99.90;;;;;;4992268;28;20391;-66
2022/09/11 02:01:24;;;;;;;23.93;21.37;;;18.80;99.90;;;;;;4992734;28;20415;-66
2022/09/11 02:03:58;;;;;;;27.47;23.90;;;18.90;99.90;;;;;;4992834;28;20399;-66
2022/09/11 02:06:30;;;;;;;24.80;22.30;;;18.90;99.90;;;;;;4992357;28;20419;-66
2022/09/11 02:09:01;;;;;;;23.03;20.63;;;18.90;99.90;;;;;;4995562;28;20483;-66
2022/09/11 02:11:31;;;;;;;25.93;23.27;;;18.90;99.90;;;;;;4995879;28;20435;-66
2022/09/11 02:14:26;;;;;;;24.80;22.30;;;18.90;99.90;;;;;;4996390;28;20806;-66
2022/09/11 02:17:47;;;;;;;23.97;20.93;;;18.90;99.90;;;;;;4996298;28;20493;-66
2022/09/11 02:20:14;;;;;;;25.03;22.43;;;19.00;99.90;;;;;;4917016;29;20509;-66
2022/09/11 02:22:39;;;;;;;29.77;24.07;;;18.90;99.90;;;;;;4979769;28;20465;-66
2022/09/11 02:25:06;;;;;;;29.13;24.77;;;18.90;99.90;;;;;;4996198;28;20765;-66
2022/09/11 02:27:32;;;;;;;26.13;20.70;;;18.90;99.90;;;;;;4995453;28;20407;-66
2022/09/11 02:29:59;;;;;;;26.20;23.20;;;18.90;99.90;;;;;;4996024;28;20415;-66
2022/09/11 02:32:26;;;;;;;25.93;23.30;;;19.00;99.90;;;;;;4995396;28;20415;-66
2022/09/11 02:34:54;;;;;;;27.20;24.30;;;18.90;99.90;;;;;;4995737;28;20425;-66
2022/09/11 02:37:34;;;;;;;27.43;24.27;;;18.90;99.90;;;;;;4995961;28;20403;-66
2022/09/11 02:40:38;;;;;;;26.13;22.93;;;18.90;99.90;;;;;;4996100;28;20407;-66
2022/09/11 02:43:29;;;;;;;26.70;23.70;;;18.90;99.90;;;;;;4995813;28;20458;-66
2022/09/11 02:46:23;;;;;;;24.73;22.17;;;18.90;99.90;;;;;;4995835;28;20419;-66
2022/09/11 02:49:23;;;;;;;25.97;23.20;;;18.90;99.90;;;;;;4995569;28;20423;-66
2022/09/11 02:52:13;;;;;;;30.50;25.67;;;18.90;99.90;;;;;;4995089;28;20399;-66
2022/09/11 02:54:47;;;;;;;29.17;24.97;;;18.90;99.90;;;;;;4994990;28;20395;-66
2022/09/11 02:57:18;;;;;;;29.87;26.00;;;18.90;99.90;;;;;;4995529;28;20403;-66
2022/09/11 02:59:55;;;;;;;31.80;26.87;;;18.90;99.90;;;;;;4994953;28;20395;-66
2022/09/11 03:02:23;;;;;;;29.83;26.23;;;19.00;99.90;;;;;;4995508;28;20446;-66
2022/09/11 03:04:49;;;;;;;32.60;26.53;;;19.00;99.90;;;;;;4994612;28;20423;-66
2022/09/11 03:07:15;;;;;;;32.70;26.90;;;19.00;99.90;;;;;;4995074;28;20447;-66
2022/09/11 03:09:42;;;;;;;30.80;27.50;;;19.10;99.90;;;;;;4994467;28;20438;-66
2022/09/11 03:12:09;;;;;;;28.90;25.40;;;19.10;99.90;;;;;;4995297;28;20422;-66
2022/09/11 03:14:35;;;;;;;31.40;25.90;;;19.10;99.90;;;;;;4994589;28;20417;-66
2022/09/11 03:17:01;;;;;;;36.07;28.50;;;19.10;99.90;;;;;;4995437;28;20415;-66
2022/09/11 03:19:27;;;;;;;33.97;27.00;;;19.10;99.90;;;;;;4993934;28;20495;-68
2022/09/11 03:21:53;;;;;;;32.93;26.70;;;19.00;99.90;;;;;;4995027;28;20794;-66
2022/09/11 03:24:19;;;;;;;33.20;28.30;;;19.00;99.90;;;;;;4995033;28;20422;-66
2022/09/11 03:26:44;;;;;;;31.67;27.40;;;19.00;99.90;;;;;;4944083;28;20192;-66
2022/09/11 03:29:10;;;;;;;30.90;26.90;;;19.00;99.90;;;;;;4977457;28;20446;-66
2022/09/11 03:31:36;;;;;;;34.10;28.37;;;19.00;99.90;;;;;;4976863;28;20219;-66
2022/09/11 03:34:02;;;;;;;33.80;27.20;;;19.00;99.90;;;;;;4994910;28;20415;-66
2022/09/11 03:36:28;;;;;;;32.87;26.57;;;19.00;99.90;;;;;;4986633;28;20234;-67
2022/09/11 03:38:54;;;;;;;31.93;27.77;;;19.10;99.90;;;;;;4994782;28;20521;-66
2022/09/11 03:41:20;;;;;;;31.93;26.10;;;19.10;99.90;;;;;;4994707;28;20647;-65
2022/09/11 03:43:46;;;;;;;32.80;26.70;;;19.10;99.90;;;;;;4993888;28;20176;-66
2022/09/11 03:46:11;;;;;;;34.40;27.33;;;19.10;99.90;;;;;;4994648;28;20403;-66
2022/09/11 03:48:38;;;;;;;33.40;26.90;;;19.10;99.90;;;;;;4994030;28;20458;-66
2022/09/11 03:51:04;;;;;;;31.77;28.10;;;19.10;99.90;;;;;;4994779;28;20180;-66
2022/09/11 03:53:31;;;;;;;35.80;28.47;;;19.10;99.90;;;;;;4993915;28;20411;-66
2022/09/11 03:55:59;;;;;;;33.10;27.80;;;19.10;99.90;;;;;;4994538;28;20410;-66
2022/09/11 03:58:25;;;;;;;34.03;27.53;;;19.10;99.90;;;;;;4994418;28;20457;-66
2022/09/11 04:00:51;;;;;;;32.70;26.37;;;19.10;99.90;;;;;;4993801;28;20836;-66
2022/09/11 04:03:16;;;;;;;34.93;28.40;;;19.10;99.90;;;;;;4993004;28;20481;-66
2022/09/11 04:05:54;;;;;;;33.93;25.97;;;19.10;99.90;;;;;;4993272;28;20180;-66
2022/09/11 04:08:20;;;;;;;37.30;27.77;;;19.10;99.90;;;;;;4994351;28;20191;-66
2022/09/11 04:10:45;;;;;;;35.17;27.17;;;19.10;99.90;;;;;;4993533;28;20545;-66
2022/09/11 04:13:11;;;;;;;36.43;27.10;;;19.10;99.90;;;;;;4994193;28;20234;-66
2022/09/11 04:15:36;;;;;;;32.00;26.10;;;19.10;99.90;;;;;;5008395;28;20179;-66
2022/09/11 04:18:07;;;;;;;31.10;26.67;;;19.10;99.90;;;;;;4994100;28;20186;-66
2022/09/11 04:20:32;;;;;;;32.03;26.03;;;19.10;99.90;;;;;;4993415;28;20258;-66
2022/09/11 04:22:58;;;;;;;34.37;28.07;;;19.10;99.90;;;;;;4993891;28;20562;-66
2022/09/11 04:25:24;;;;;;;33.67;26.70;;;19.10;99.90;;;;;;4993935;28;20188;-66
2022/09/11 04:27:50;;;;;;;32.97;27.40;;;19.10;99.90;;;;;;4993299;28;20625;-66
2022/09/11 04:30:16;;;;;;;35.07;28.00;;;19.10;99.90;;;;;;4993986;28;20219;-66
2022/09/11 04:32:41;;;;;;;36.70;27.97;;;19.20;99.90;;;;;;4992407;28;20188;-66
2022/09/11 04:35:07;;;;;;;36.87;28.27;;;19.10;99.90;;;;;;4993255;28;20422;-66
2022/09/11 04:37:34;;;;;;;38.17;29.20;;;19.20;99.90;;;;;;4993182;28;20184;-66
2022/09/11 04:40:00;;;;;;;34.00;26.83;;;19.20;99.90;;;;;;4993680;28;20487;-66
2022/09/11 04:42:25;;;;;;;39.77;29.47;;;19.20;99.90;;;;;;4993533;28;20550;-66
2022/09/11 04:44:51;;;;;;;40.87;30.30;;;19.20;99.90;;;;;;4992993;28;20184;-66
2022/09/11 04:47:17;;;;;;;45.20;31.17;;;19.20;99.90;;;;;;4993532;28;20639;-66
2022/09/11 04:49:45;;;;;;;44.33;31.20;;;19.20;99.90;;;;;;4992894;28;20238;-66
2022/09/11 04:52:11;;;;;;;46.20;32.60;;;19.20;99.90;;;;;;4993491;28;20179;-66
2022/09/11 04:54:37;;;;;;;43.83;31.63;;;19.20;99.90;;;;;;4942548;28;20419;-66
2022/09/11 04:57:03;;;;;;;43.73;31.83;;;19.10;99.90;;;;;;4993683;28;20180;-66
2022/09/11 04:59:28;;;;;;;48.60;33.83;;;19.10;99.90;;;;;;4993399;28;20375;-66
2022/09/11 05:01:54;;;;;;;44.87;30.83;;;19.10;99.90;;;;;;4992379;28;20459;-66
2022/09/11 05:04:20;;;;;;;52.67;34.17;;;19.10;99.90;;;;;;4992968;28;20175;-66
2022/09/11 05:06:49;;;;;;;48.67;33.80;;;19.10;99.90;;;;;;4992675;28;20188;-66
2022/09/11 05:09:17;;;;;;;45.13;32.37;;;19.10;99.90;;;;;;4993240;28;20422;-66
2022/09/11 05:11:43;;;;;;;51.43;34.70;;;19.10;99.90;;;;;;4992658;28;20411;-66
2022/09/11 05:14:08;;;;;;;44.13;32.30;;;19.20;99.90;;;;;;4993188;28;20410;-66
2022/09/11 05:16:35;;;;;;;48.60;32.97;;;19.20;99.90;;;;;;4992591;28;20679;-66
2022/09/11 05:19:05;;;;;;;49.77;33.60;;;19.20;99.90;;;;;;4993241;28;20210;-66
2022/09/11 05:21:32;;;;;;;47.70;34.20;;;19.20;99.90;;;;;;4993036;28;20415;-66
2022/09/11 05:24:00;;;;;;;47.77;31.53;;;19.20;99.90;;;;;;4992760;28;20441;-66
2022/09/11 05:26:28;;;;;;;49.00;32.50;;;19.20;99.90;;;;;;4992786;28;20855;-66
2022/09/11 05:28:55;;;;;;;42.20;31.63;;;19.20;99.90;;;;;;4992456;28;20415;-66
2022/09/11 05:31:22;;;;;;;46.00;32.30;;;19.20;99.90;;;;;;4958625;28;20771;-66
2022/09/11 05:33:48;;;;;;;47.10;32.73;;;19.20;99.90;;;;;;4992443;28;20450;-66
2022/09/11 05:36:14;;;;;;;49.83;31.73;;;19.20;99.90;;;;;;4992785;28;21041;-66
2022/09/11 05:38:42;;;;;;;48.10;32.30;;;19.20;99.90;;;;;;4992418;28;20431;-66
2022/09/11 05:41:12;;;;;;;45.33;33.60;;;19.20;99.90;;;;;;4992563;28;20478;-66
2022/09/11 05:43:40;;;;;;;44.00;32.77;;;19.20;99.90;;;;;;4994648;28;20475;-66
2022/09/11 05:46:10;;;;;;;44.60;32.40;;;19.30;99.90;;;;;;4996796;28;20411;-66
2022/09/11 05:48:35;;;;;;;45.00;31.10;;;19.20;99.90;;;;;;4996170;28;20403;-67
2022/09/11 05:51:08;;;;;;;43.87;31.70;;;19.20;99.90;;;;;;4996935;28;20945;-66
2022/09/11 05:53:34;;;;;;;44.20;30.30;;;19.20;99.90;;;;;;4979935;28;20575;-66
2022/09/11 05:56:08;;;;;;;45.60;32.63;;;19.20;99.90;;;;;;4996379;28;20410;-66
2022/09/11 05:58:35;;;;;;;52.37;33.67;;;19.20;99.90;;;;;;4996276;28;20429;-66
2022/09/11 06:01:07;;;;;;;49.40;32.60;;;19.20;99.90;;;;;;4996526;28;20407;-66
2022/09/11 06:03:33;;;;;;;45.30;32.10;;;19.20;99.90;;;;;;4996731;28;20465;-66
2022/09/11 06:06:01;;;;;;;48.23;31.57;;;19.20;99.90;;;;;;4995973;28;20450;-66
2022/09/11 06:08:28;;;;;;;47.60;31.43;;;19.20;99.90;;;;;;4996697;28;20469;-66
2022/09/11 06:10:54;;;;;;;55.53;34.83;;;19.30;99.90;;;;;;4995798;28;20906;-66
2022/09/11 06:13:21;;;;;;;51.23;33.50;;;19.30;99.90;;;;;;4996255;28;20430;-66
2022/09/11 06:15:48;;;;;;;53.30;33.87;;;19.30;99.90;;;;;;4978435;28;20831;-66
2022/09/11 06:18:14;;;;;;;51.67;33.90;;;19.30;99.90;;;;;;4996362;28;20403;-66
2022/09/11 06:20:41;;;;;;;50.53;32.30;;;19.30;99.90;;;;;;4995577;28;20411;-66
2022/09/11 06:23:10;;;;;;;48.50;32.30;;;19.30;99.90;;;;;;4996100;28;20465;-66
2022/09/11 06:25:36;;;;;;;48.93;30.90;;;19.30;99.90;;;;;;4978682;28;20419;-65
2022/09/11 06:28:03;;;;;;;49.53;30.60;;;19.30;99.90;;;;;;4995806;28;20411;-67
2022/09/11 06:30:28;;;;;;;21.53;16.70;;;19.50;99.90;;;;;;4996140;28;20892;-65
2022/09/11 06:32:55;;;;;;;21.27;16.63;;;19.60;99.90;;;;;;4995448;28;20557;-65
2022/09/11 06:35:22;;;;;;;18.23;16.30;;;20.00;99.90;;;;;;4995465;28;20668;-65
2022/09/11 06:37:48;;;;;;;41.10;26.80;;;20.40;99.90;;;;;;4995357;28;20403;-65
2022/09/11 06:40:14;;;;;;;22.73;18.50;;;20.60;99.90;;;;;;4995936;28;20497;-65
2022/09/11 06:42:40;;;;;;;27.97;22.57;;;20.70;99.90;;;;;;4996804;28;20594;-65
2022/09/11 06:45:07;;;;;;;21.17;18.90;;;20.90;99.90;;;;;;5015450;28;20175;-65
2022/09/11 06:47:33;;;;;;;24.00;18.20;;;21.00;99.90;;;;;;5009265;28;20176;-65
2022/09/11 06:49:59;;;;;;;20.60;17.20;;;21.00;99.90;;;;;;5006237;28;20418;-65
2022/09/11 06:52:24;;;;;;;32.50;24.63;;;21.20;99.90;;;;;;5014955;28;20476;-65
2022/09/11 06:54:50;;;;;;;26.97;20.80;;;21.30;99.90;;;;;;5000860;28;20183;-65
2022/09/11 06:57:15;;;;;;;33.20;24.80;;;21.30;99.90;;;;;;4995121;28;20539;-66
2022/09/11 06:59:42;;;;;;;29.43;23.60;;;21.40;99.90;;;;;;5002491;28;20711;-65
2022/09/11 07:02:10;;;;;;;28.00;24.50;;;21.40;99.90;;;;;;5004437;28;20270;-65
2022/09/11 07:04:36;;;;;;;20.20;18.00;;;21.30;99.90;;;;;;5004987;28;20470;-66
2022/09/11 07:07:02;;;;;;;22.37;19.47;;;21.40;99.90;;;;;;5005330;28;20821;-65
2022/09/11 07:09:27;;;;;;;32.90;24.60;;;21.40;99.90;;;;;;5004582;28;20186;-65
2022/09/11 07:11:53;;;;;;;30.83;24.47;;;21.50;99.90;;;;;;5003482;28;20178;-66
2022/09/11 07:14:22;;;;;;;21.53;18.37;;;21.50;99.90;;;;;;5002464;28;20191;-65
2022/09/11 07:16:51;;;;;;;21.57;18.77;;;21.60;99.90;;;;;;5004591;28;20510;-65
2022/09/11 07:19:18;;;;;;;29.47;24.40;;;21.60;99.90;;;;;;5005105;28;20494;-65
2022/09/11 07:21:43;;;;;;;21.00;18.40;;;21.60;99.90;;;;;;5003315;28;20823;-65
2022/09/11 07:24:09;;;;;;;22.20;18.87;;;21.60;99.90;;;;;;5004357;28;20422;-65
2022/09/11 07:26:37;;;;;;;30.13;22.93;;;21.60;99.90;;;;;;4995348;28;20641;-65
2022/09/11 07:29:03;;;;;;;30.43;24.23;;;21.70;99.90;;;;;;5004573;28;20175;-65
2022/09/11 07:31:31;;;;;;;26.43;22.93;;;21.70;99.90;;;;;;5004941;28;20763;-65
2022/09/11 07:33:58;;;;;;;23.97;21.40;;;21.60;99.90;;;;;;5002058;28;20213;-65
2022/09/11 07:36:30;;;;;;;28.37;23.97;;;21.60;99.90;;;;;;5000075;28;20941;-65
2022/09/11 07:38:56;;;;;;;22.40;19.97;;;21.50;99.90;;;;;;5004560;28;20486;-65
2022/09/11 07:41:23;;;;;;;58.17;49.00;;;21.50;99.90;;;;;;5007624;28;20497;-65
2022/09/11 07:43:54;;;;;;;36.63;28.60;;;21.50;99.90;;;;;;5003259;28;21035;-65
2022/09/11 07:46:20;;;;;;;31.00;26.13;;;21.50;99.90;;;;;;5004902;28;20406;-65
2022/09/11 07:48:46;;;;;;;31.57;25.70;;;21.40;99.90;;;;;;5001588;28;20847;-65
2022/09/11 07:51:14;;;;;;;30.03;25.60;;;21.40;99.90;;;;;;5003457;28;20434;-65
2022/09/11 07:53:45;;;;;;;26.57;22.57;;;21.40;99.90;;;;;;4987593;28;20183;-65
2022/09/11 07:56:14;;;;;;;30.57;25.20;;;21.40;99.90;;;;;;5003565;28;20478;-65
2022/09/11 07:58:41;;;;;;;29.83;24.27;;;21.50;99.90;;;;;;5004425;28;20411;-65
2022/09/11 08:01:10;;;;;;;24.20;21.27;;;21.50;99.90;;;;;;4982988;28;20411;-65
2022/09/11 08:03:36;;;;;;;24.73;22.07;;;21.50;99.90;;;;;;4969026;28;20868;-65
2022/09/11 08:06:08;;;;;;;30.93;25.30;;;21.50;99.90;;;;;;5001397;28;20439;-65
2022/09/11 08:08:36;;;;;;;29.73;24.97;;;21.60;99.90;;;;;;5004271;28;20469;-65
2022/09/11 08:11:20;;;;;;;98.27;87.90;;;21.60;99.90;;;;;;5006547;28;20924;-65
2022/09/11 08:13:50;;;;;;;42.00;37.37;;;21.70;99.90;;;;;;5002828;28;20438;-65
2022/09/11 08:16:18;;;;;;;143.13;123.77;;;21.70;99.90;;;;;;4985106;28;20433;-65
2022/09/11 08:18:44;;;;;;;108.07;90.70;;;21.70;99.90;;;;;;4985119;28;20490;-69
2022/09/11 08:21:11;;;;;;;35.53;29.17;;;21.70;99.90;;;;;;5010483;28;20930;-65
2022/09/11 08:23:41;;;;;;;33.23;27.40;;;21.70;99.90;;;;;;5013131;28;20994;-65
2022/09/11 08:26:09;;;;;;;34.80;26.60;;;21.80;99.90;;;;;;4992257;28;20411;-65
2022/09/11 08:28:36;;;;;;;31.80;26.80;;;21.80;99.90;;;;;;5004973;28;20506;-65
2022/09/11 08:31:02;;;;;;;29.60;26.30;;;21.70;99.90;;;;;;5004350;28;20506;-65
2022/09/11 08:33:29;;;;;;;31.30;27.90;;;21.60;99.90;;;;;;5002081;28;20415;-65
2022/09/11 08:35:57;;;;;;;31.40;28.00;;;21.60;99.90;;;;;;5001559;28;20466;-65
2022/09/11 08:38:23;;;;;;;28.90;25.43;;;21.70;99.90;;;;;;5004595;28;20490;-65
2022/09/11 08:40:50;;;;;;;29.43;25.13;;;21.70;99.90;;;;;;4937432;28;20434;-65
2022/09/11 08:43:31;;;;;;;26.33;23.53;;;21.80;99.90;;;;;;5002030;28;20463;-65
2022/09/11 08:46:08;;;;;;;25.47;22.73;;;21.80;99.90;;;;;;5000780;28;20445;-65
2022/09/11 08:48:58;;;;;;;29.07;24.03;;;21.80;99.90;;;;;;5003724;28;20410;-65
2022/09/11 08:51:24;;;;;;;25.87;23.10;;;21.80;99.90;;;;;;5003673;28;20785;-65
2022/09/11 08:53:51;;;;;;;25.47;21.27;;;21.80;99.90;;;;;;5000575;28;20466;-65
2022/09/11 08:56:21;;;;;;;28.40;25.33;;;21.90;99.90;;;;;;5002690;28;20453;-65
2022/09/11 08:59:18;;;;;;;26.40;23.63;;;22.00;99.90;;;;;;4983631;28;20510;-66
2022/09/11 09:02:18;;;;;;;26.30;23.60;;;22.00;99.90;;;;;;5003412;28;20450;-65
2022/09/11 09:05:25;;;;;;;23.57;21.27;;;22.00;99.90;;;;;;4991461;28;20469;-65
2022/09/11 09:08:00;;;;;;;21.93;19.37;;;22.10;99.90;;;;;;4876210;28;20788;-65
2022/09/11 09:10:52;;;;;;;39.07;34.20;;;22.10;99.90;;;;;;5001321;28;20405;-65
2022/09/11 09:13:44;;;;;;;24.80;22.17;;;22.20;99.90;;;;;;4987174;28;20450;-65
2022/09/11 09:16:20;;;;;;;27.40;24.20;;;22.30;99.90;;;;;;4977561;28;20410;-65
2022/09/11 09:19:19;;;;;;;31.57;28.17;;;22.40;99.90;;;;;;5012050;28;20452;-65
2022/09/11 09:22:12;;;;;;;32.67;27.73;;;22.40;99.90;;;;;;5012402;28;21028;-65
2022/09/11 09:24:47;;;;;;;29.43;26.23;;;22.50;99.90;;;;;;5012943;28;20399;-65
2022/09/11 09:27:36;;;;;;;25.20;22.50;;;22.50;99.90;;;;;;5012888;28;20943;-65
2022/09/11 09:30:04;;;;;;;21.97;19.73;;;22.40;99.90;;;;;;4994530;28;20898;-65
2022/09/11 09:32:40;;;;;;;24.40;20.43;;;22.30;99.90;;;;;;5012743;28;20448;-65
2022/09/11 09:35:22;;;;;;;22.37;19.20;;;22.30;99.90;;;;;;5011903;28;20753;-65
2022/09/11 09:37:48;;;;;;;27.10;19.30;;;22.20;99.90;;;;;;5001252;28;20460;-70
2022/09/11 09:40:17;;;;;;;19.97;17.87;;;22.20;99.90;;;;;;5002587;28;20844;-66
2022/09/11 09:42:54;;;;;;;19.53;17.47;;;22.10;99.90;;;;;;4985599;28;20461;-65
2022/09/11 09:45:47;;;;;;;19.63;17.67;;;22.10;99.90;;;;;;4991063;28;20874;-66
2022/09/11 09:48:13;;;;;;;19.90;17.80;;;22.00;99.90;;;;;;5001930;28;20871;-65
2022/09/11 09:50:42;;;;;;;18.10;16.30;;;22.00;99.90;;;;;;5000223;28;20469;-65
2022/09/11 09:53:42;;;;;;;19.10;16.47;;;22.10;99.90;;;;;;5000300;28;20685;-66
2022/09/11 09:56:12;;;;;;;17.17;15.37;;;22.10;99.90;;;;;;4999480;28;20903;-65
2022/09/11 09:58:59;;;;;;;17.60;15.70;;;22.20;99.90;;;;;;5000201;28;20415;-66
2022/09/11 10:01:45;;;;;;;18.13;16.30;;;22.30;99.90;;;;;;5000865;28;20403;-65
2022/09/11 10:04:21;;;;;;;20.40;17.07;;;22.40;99.90;;;;;;5000714;28;20922;-65
2022/09/11 10:06:50;;;;;;;19.07;17.07;;;22.60;99.90;;;;;;5001016;28;20426;-65
2022/09/11 10:09:23;;;;;;;17.00;15.30;;;22.70;99.90;;;;;;5000065;28;20819;-65
2022/09/11 10:12:21;;;;;;;17.43;15.73;;;22.90;99.90;;;;;;5000781;28;20406;-69
2022/09/11 10:15:01;;;;;;;17.00;15.30;;;23.00;99.90;;;;;;4999509;28;20398;-65
2022/09/11 10:17:28;;;;;;;16.23;14.77;;;23.10;99.40;;;;;;4992640;28;20461;-66
2022/09/11 10:19:56;;;;;;;16.63;15.03;;;23.10;99.70;;;;;;5001344;28;20761;-65
2022/09/11 10:22:28;;;;;;;14.97;13.50;;;23.10;99.00;;;;;;5001273;28;20553;-65
2022/09/11 10:25:19;;;;;;;14.73;13.23;;;23.10;99.10;;;;;;5002288;28;20391;-65
2022/09/11 10:28:09;;;;;;;15.63;14.03;;;23.10;98.90;;;;;;4994781;28;21014;-65
2022/09/11 10:30:37;;;;;;;20.97;18.43;;;23.20;98.80;;;;;;5003781;28;20398;-66
2022/09/11 10:33:25;;;;;;;20.80;17.97;;;23.20;99.30;;;;;;5004559;28;20438;-65
2022/09/11 10:35:54;;;;;;;23.03;19.83;;;23.10;99.90;;;;;;5005112;28;20493;-66
2022/09/11 10:38:28;;;;;;;16.23;14.63;;;23.30;99.90;;;;;;5004373;28;20503;-65
2022/09/11 10:41:06;;;;;;;15.07;13.67;;;23.30;99.10;;;;;;5005614;28;21115;-65
2022/09/11 10:44:00;;;;;;;16.67;15.07;;;23.40;99.10;;;;;;5003355;28;20454;-65
2022/09/11 10:46:31;;;;;;;16.33;14.67;;;23.60;98.70;;;;;;5005182;28;20407;-65
2022/09/11 10:48:58;;;;;;;17.20;15.53;;;23.60;98.50;;;;;;5003231;28;20430;-66
2022/09/11 10:51:27;;;;;;;17.37;14.50;;;23.50;98.30;;;;;;5003377;28;20918;-65
2022/09/11 10:54:19;;;;;;;16.10;14.50;;;23.40;98.50;;;;;;4997331;28;20415;-65
2022/09/11 10:57:03;;;;;;;19.50;16.77;;;23.30;98.60;;;;;;5002846;28;20422;-65
2022/09/11 10:59:50;;;;;;;20.70;17.53;;;23.20;99.30;;;;;;5003204;28;20443;-65
2022/09/11 11:02:24;;;;;;;17.03;14.10;;;23.30;99.90;;;;;;5004321;28;20471;-65
2022/09/11 11:04:49;;;;;;;17.63;15.57;;;23.40;99.40;;;;;;5005005;28;20420;-66
2022/09/11 11:07:44;;;;;;;15.27;13.67;;;23.60;99.90;;;;;;5003543;28;20746;-65
2022/09/11 11:10:55;;;;;;;16.50;14.80;;;23.80;99.00;;;;;;5002552;28;20404;-65
2022/09/11 11:13:58;;;;;;;20.27;17.30;;;24.00;97.30;;;;;;4986706;28;20981;-66
2022/09/11 11:16:41;;;;;;;18.77;16.77;;;23.90;96.90;;;;;;5004099;28;20406;-65
2022/09/11 11:19:19;;;;;;;17.40;15.60;;;23.80;97.10;;;;;;5002404;28;20418;-67
2022/09/11 11:22:13;;;;;;;19.00;17.00;;;23.80;97.30;;;;;;5002640;28;20406;-65
2022/09/11 11:24:49;;;;;;;19.10;17.10;;;23.60;97.60;;;;;;5004474;28;20419;-66
2022/09/11 11:27:41;;;;;;;17.87;15.97;;;23.60;98.30;;;;;;5004022;28;20394;-65
2022/09/11 11:30:19;;;;;;;20.00;15.93;;;23.70;98.50;;;;;;5002137;28;20407;-66
2022/09/11 11:33:17;;;;;;;16.33;14.77;;;23.80;98.70;;;;;;5002502;28;20797;-65
2022/09/11 11:35:43;;;;;;;16.13;14.53;;;23.90;97.70;;;;;;5004248;28;20786;-65
2022/09/11 11:38:26;;;;;;;31.73;24.73;;;24.10;98.60;;;;;;5002131;28;20997;-65
2022/09/11 11:41:23;;;;;;;20.53;18.50;;;24.20;98.80;;;;;;5004374;28;20482;-66
2022/09/11 11:43:51;;;;;;;21.17;17.43;;;24.20;97.60;;;;;;5003167;28;20552;-69
2022/09/11 11:46:22;;;;;;;18.57;16.60;;;24.10;96.50;;;;;;5003801;28;20415;-67
2022/09/11 11:48:51;;;;;;;17.00;15.20;;;24.00;96.80;;;;;;5004777;28;20513;-66
2022/09/11 11:51:24;;;;;;;19.40;17.33;;;24.10;96.60;;;;;;5002477;28;20418;-66
2022/09/11 11:54:00;;;;;;;17.30;15.53;;;24.10;97.00;;;;;;5002066;28;20395;-66
2022/09/11 11:56:38;;;;;;;18.67;16.87;;;24.20;96.50;;;;;;4987191;28;20410;-66
2022/09/11 11:59:18;;;;;;;17.33;15.53;;;24.20;96.60;;;;;;4991612;28;20395;-67
2022/09/11 12:01:58;;;;;;;17.20;15.40;;;24.10;97.30;;;;;;5001729;28;20407;-65
2022/09/11 12:04:47;;;;;;;19.03;16.20;;;24.20;97.30;;;;;;4984399;28;20899;-65
2022/09/11 12:07:23;;;;;;;27.20;22.83;;;24.10;97.40;;;;;;5002756;28;20434;-65
2022/09/11 12:09:50;;;;;;;20.10;16.93;;;24.10;98.20;;;;;;5004192;28;20406;-65
2022/09/11 12:12:18;;;;;;;19.40;17.40;;;24.00;96.80;;;;;;4984655;28;20429;-66
2022/09/11 12:15:05;;;;;;;19.73;17.60;;;24.00;96.40;;;;;;5003580;28;20402;-65
2022/09/11 12:17:33;;;;;;;22.43;18.60;;;23.80;96.50;;;;;;5002255;28;20406;-65
2022/09/11 12:20:08;;;;;;;21.53;18.23;;;23.70;97.00;;;;;;5000662;28;20409;-65
2022/09/11 12:22:37;;;;;;;18.63;16.57;;;23.60;97.10;;;;;;5002317;28;20851;-65
2022/09/11 12:25:26;;;;;;;20.37;17.97;;;23.60;97.10;;;;;;5000689;28;20404;-65
2022/09/11 12:28:39;;;;;;;24.30;19.70;;;23.60;97.60;;;;;;4992173;28;20426;-65
2022/09/11 12:31:10;;;;;;;20.07;17.97;;;23.60;97.70;;;;;;4997016;28;20429;-65
2022/09/11 12:33:46;;;;;;;22.77;19.57;;;23.60;97.50;;;;;;5004091;28;20880;-65
2022/09/11 12:36:32;;;;;;;19.50;17.17;;;23.60;97.20;;;;;;5001160;28;20462;-65
2022/09/11 12:39:04;;;;;;;20.97;18.50;;;23.70;97.10;;;;;;5002596;28;20431;-65
2022/09/11 12:41:34;;;;;;;22.13;18.33;;;23.70;96.60;;;;;;5003633;28;20793;-65
2022/09/11 12:44:04;;;;;;;23.07;19.40;;;23.60;96.40;;;;;;5000657;28;20465;-65
2022/09/11 12:46:29;;;;;;;21.00;18.20;;;23.50;96.70;;;;;;5001334;28;20423;-65
2022/09/11 12:49:04;;;;;;;20.90;18.50;;;23.50;96.90;;;;;;5001016;28;20806;-66
2022/09/11 12:51:35;;;;;;;19.73;17.67;;;23.40;96.40;;;;;;5008461;28;20177;-65
2022/09/11 12:54:11;;;;;;;21.73;19.00;;;23.40;96.70;;;;;;4999775;28;21104;-65